createdAt,value
2023-06-04T00:02:23.373Z,2.17
2023-06-04T00:04:50.798Z,3.13
2023-06-04T00:07:17.901Z,4.90
2023-06-04T00:09:47.584Z,3.73
2023-06-04T00:12:15.549Z,5.73
2023-06-04T00:14:42.987Z,2.53
2023-06-04T00:17:10.816Z,3.67
2023-06-04T00:19:41.773Z,3.17
2023-06-04T00:22:09.489Z,2.83
2023-06-04T00:24:39.064Z,5.40
2023-06-04T00:27:07.112Z,2.30
2023-06-04T00:29:34.088Z,3.10
2023-06-04T00:32:01.117Z,3.53
2023-06-04T00:34:28.744Z,3.40
2023-06-04T00:36:55.996Z,2.50
2023-06-04T00:39:23.093Z,3.37
2023-06-04T00:41:50.408Z,5.20
2023-06-04T00:44:17.534Z,5.47
2023-06-04T00:46:46.794Z,2.83
2023-06-04T00:49:14.021Z,4.50
2023-06-04T00:51:41.667Z,3.60
2023-06-04T00:54:12.986Z,2.63
2023-06-04T00:56:41.252Z,6.27
2023-06-04T00:59:10.942Z,3.50
2023-06-04T01:02:00.148Z,4.03
2023-06-04T01:04:56.639Z,3.57
2023-06-04T01:07:24.648Z,6.17
2023-06-04T01:09:52.528Z,2.80
2023-06-04T01:12:19.615Z,2.80
2023-06-04T01:14:46.874Z,2.63
2023-06-04T01:17:42.248Z,3.40
2023-06-04T01:20:20.008Z,4.43
2023-06-04T01:23:01.555Z,4.37
2023-06-04T01:25:31.273Z,4.13
2023-06-04T01:27:58.942Z,3.00
2023-06-04T01:30:29.636Z,4.30
2023-06-04T01:32:57.297Z,3.53
2023-06-04T01:35:28.248Z,2.50
2023-06-04T01:37:57.197Z,2.97
2023-06-04T01:40:25.090Z,3.50
2023-06-04T01:42:52.196Z,4.87
2023-06-04T01:45:19.320Z,6.80
2023-06-04T01:47:46.452Z,4.67
2023-06-04T01:50:13.897Z,3.30
2023-06-04T01:52:42.212Z,6.07
2023-06-04T01:55:13.390Z,3.20
2023-06-04T01:57:41.125Z,2.80
2023-06-04T02:00:11.635Z,4.90
2023-06-04T02:02:39.452Z,3.73
2023-06-04T02:05:09.876Z,3.87
2023-06-04T02:07:42.670Z,4.40
2023-06-04T02:10:14.435Z,2.83
2023-06-04T02:12:42.827Z,2.77
2023-06-04T02:15:12.406Z,5.90
2023-06-04T02:17:43.987Z,4.57
2023-06-04T02:20:11.330Z,6.80
2023-06-04T02:22:38.786Z,2.87
2023-06-04T02:25:06.940Z,3.93
2023-06-04T02:27:33.998Z,4.03
2023-06-04T02:30:01.108Z,7.03
2023-06-04T02:32:28.153Z,4.50
2023-06-04T02:34:55.889Z,3.63
2023-06-04T02:37:23.862Z,3.67
2023-06-04T02:39:50.790Z,4.40
2023-06-04T02:42:20.898Z,3.77
2023-06-04T02:44:47.809Z,5.27
2023-06-04T02:47:15.035Z,4.50
2023-06-04T02:49:42.095Z,4.60
2023-06-04T02:52:09.187Z,5.23
2023-06-04T02:54:38.908Z,4.23
2023-06-04T02:57:06.374Z,6.83
2023-06-04T02:59:33.332Z,5.37
2023-06-04T03:02:00.395Z,3.40
2023-06-04T03:04:27.777Z,7.63
2023-06-04T03:06:59.138Z,3.20
2023-06-04T03:09:26.599Z,6.37
2023-06-04T03:11:55.126Z,3.57
2023-06-04T03:14:22.496Z,3.43
2023-06-04T03:16:50.467Z,4.13
2023-06-04T03:19:18.533Z,4.97
2023-06-04T03:21:46.238Z,4.67
2023-06-04T03:24:13.536Z,4.00
2023-06-04T03:26:41.095Z,3.93
2023-06-04T03:29:08.267Z,5.13
2023-06-04T03:31:35.428Z,4.67
2023-06-04T03:34:02.555Z,6.23
2023-06-04T03:36:33.050Z,4.67
2023-06-04T03:39:00.192Z,6.50
2023-06-04T03:41:27.472Z,4.57
2023-06-04T03:43:54.714Z,5.30
2023-06-04T03:46:21.818Z,6.43
2023-06-04T03:48:48.744Z,3.57
2023-06-04T03:51:15.950Z,5.40
2023-06-04T03:53:43.075Z,4.63
2023-06-04T03:56:10.040Z,6.00
2023-06-04T03:58:37.752Z,6.43
2023-06-04T04:01:06.586Z,7.90
2023-06-04T04:03:36.297Z,4.70
2023-06-04T04:06:03.601Z,5.53
2023-06-04T04:08:32.746Z,6.47
2023-06-04T04:10:59.612Z,6.77
2023-06-04T04:13:26.694Z,6.57
2023-06-04T04:15:53.972Z,3.87
2023-06-04T04:18:22.009Z,4.23
2023-06-04T04:20:48.965Z,3.03
2023-06-04T04:23:16.174Z,3.80
2023-06-04T04:25:45.272Z,4.90
2023-06-04T04:28:12.261Z,6.27
2023-06-04T04:30:40.351Z,3.83
2023-06-04T04:33:07.842Z,4.70
2023-06-04T04:35:35.771Z,6.40
2023-06-04T04:38:05.987Z,2.70
2023-06-04T04:40:32.974Z,4.47
2023-06-04T04:43:00.089Z,5.57
2023-06-04T04:45:26.946Z,5.63
2023-06-04T04:47:54.135Z,4.60
2023-06-04T04:50:21.668Z,5.17
2023-06-04T04:52:50.950Z,6.73
2023-06-04T04:55:18.131Z,6.63
2023-06-04T04:57:45.244Z,5.30
2023-06-04T05:00:12.943Z,5.73
2023-06-04T05:02:40.260Z,6.40
2023-06-04T05:05:07.591Z,3.90
2023-06-04T05:07:34.528Z,4.40
2023-06-04T05:10:01.644Z,5.83
2023-06-04T05:12:31.242Z,5.33
2023-06-04T05:15:01.095Z,8.13
2023-06-04T05:17:31.804Z,6.73
2023-06-04T05:20:05.417Z,4.80
2023-06-04T05:22:33.609Z,10.07
2023-06-04T05:25:03.337Z,4.37
2023-06-04T05:27:30.493Z,4.73
2023-06-04T05:29:57.912Z,6.17
2023-06-04T05:32:25.238Z,5.47
2023-06-04T05:34:52.134Z,6.30
2023-06-04T05:37:19.089Z,5.73
2023-06-04T05:39:46.450Z,4.23
2023-06-04T05:42:14.962Z,4.63
2023-06-04T05:44:42.103Z,5.93
2023-06-04T05:47:09.292Z,4.03
2023-06-04T05:49:36.230Z,6.33
2023-06-04T05:52:03.103Z,5.30
2023-06-04T05:54:31.178Z,6.87
2023-06-04T05:56:58.358Z,3.57
2023-06-04T05:59:25.205Z,3.93
2023-06-04T06:01:52.209Z,4.17
2023-06-04T06:04:19.099Z,4.80
2023-06-04T06:06:49.752Z,4.57
2023-06-04T06:09:20.573Z,5.67
2023-06-04T06:11:47.540Z,4.40
2023-06-04T06:14:14.518Z,6.67
2023-06-04T06:16:42.103Z,3.10
2023-06-04T06:19:08.933Z,4.50
2023-06-04T06:21:36.010Z,6.10
2023-06-04T06:24:03.315Z,3.03
2023-06-04T06:26:31.285Z,3.40
2023-06-04T06:28:58.140Z,3.87
2023-06-04T06:31:25.225Z,5.07
2023-06-04T06:33:52.381Z,6.53
2023-06-04T06:36:20.191Z,4.47
2023-06-04T06:38:47.677Z,5.20
2023-06-04T06:41:14.697Z,5.03
2023-06-04T06:43:41.731Z,3.87
2023-06-04T06:46:08.705Z,4.93
2023-06-04T06:48:35.725Z,5.10
2023-06-04T06:51:02.509Z,3.28
2023-06-04T06:53:29.403Z,4.63
2023-06-04T06:55:56.587Z,3.73
2023-06-04T06:58:24.597Z,4.93
2023-06-04T07:00:51.646Z,4.03
2023-06-04T07:03:18.631Z,5.03
2023-06-04T07:05:48.754Z,2.83
2023-06-04T07:08:15.823Z,4.23
2023-06-04T07:10:42.706Z,2.80
2023-06-04T07:13:09.617Z,4.77
2023-06-04T07:15:36.773Z,2.80
2023-06-04T07:18:03.991Z,3.13
2023-06-04T07:20:32.101Z,3.67
2023-06-04T07:22:58.892Z,4.70
2023-06-04T07:25:26.944Z,2.70
2023-06-04T07:27:54.356Z,3.10
2023-06-04T07:30:21.527Z,2.70
2023-06-04T07:32:51.818Z,2.08
2023-06-04T07:35:19.023Z,4.05
2023-06-04T07:37:50.451Z,3.92
2023-06-04T07:40:19.102Z,2.40
2023-06-04T07:42:48.469Z,3.20
2023-06-04T07:45:16.699Z,3.03
2023-06-04T07:47:44.833Z,2.75
2023-06-04T07:50:12.065Z,7.05
2023-06-04T07:52:39.112Z,2.55
2023-06-04T07:55:06.648Z,3.45
2023-06-04T07:57:33.660Z,3.00
2023-06-04T08:00:01.153Z,3.03
2023-06-04T08:02:28.183Z,1.98
2023-06-04T08:04:55.519Z,2.65
2023-06-04T08:07:22.629Z,4.25
2023-06-04T08:09:50.764Z,2.28
2023-06-04T08:12:17.958Z,2.65
2023-06-04T08:14:45.090Z,2.00
2023-06-04T08:17:12.118Z,2.95
2023-06-04T08:19:38.991Z,1.80
2023-06-04T08:22:07.201Z,2.38
2023-06-04T08:24:34.103Z,4.13
2023-06-04T08:27:01.099Z,2.25
2023-06-04T08:29:28.075Z,2.67
2023-06-04T08:31:54.932Z,2.60
2023-06-04T08:34:22.040Z,3.78
2023-06-04T08:36:49.325Z,2.55
2023-06-04T08:39:16.246Z,3.25
2023-06-04T08:41:53.716Z,4.03
2023-06-04T08:44:20.740Z,3.65
2023-06-04T08:46:54.629Z,3.60
2023-06-04T08:49:26.418Z,2.25
2023-06-04T08:51:53.334Z,2.25
2023-06-04T08:54:20.707Z,3.63
2023-06-04T08:56:50.178Z,3.72
2023-06-04T08:59:17.836Z,2.67
2023-06-04T09:01:46.422Z,3.25
2023-06-04T09:04:13.774Z,3.08
2023-06-04T09:06:43.664Z,4.13
2023-06-04T09:09:13.921Z,2.35
2023-06-04T09:11:56.062Z,3.42
2023-06-04T09:14:25.771Z,2.83
2023-06-04T09:16:54.963Z,1.50
2023-06-04T09:19:22.683Z,3.03
2023-06-04T09:21:53.795Z,1.98
2023-06-04T09:24:22.194Z,2.65
2023-06-04T09:26:50.234Z,2.85
2023-06-04T09:29:18.067Z,3.90
2023-06-04T09:31:58.401Z,1.90
2023-06-04T09:34:30.101Z,1.08
2023-06-04T09:36:58.013Z,2.08
2023-06-04T09:39:25.763Z,3.15
2023-06-04T09:42:03.028Z,1.60
2023-06-04T09:44:31.087Z,1.95
2023-06-04T09:46:59.273Z,1.83
2023-06-04T09:49:26.521Z,2.35
2023-06-04T09:51:53.942Z,2.83
2023-06-04T09:54:21.144Z,4.15
2023-06-04T09:56:51.002Z,2.53
2023-06-04T09:59:19.246Z,2.33
2023-06-04T10:01:46.780Z,4.45
2023-06-04T10:04:14.975Z,2.88
2023-06-04T10:06:43.056Z,2.22
2023-06-04T10:09:10.602Z,3.05
2023-06-04T10:11:42.881Z,1.45
2023-06-04T10:14:26.689Z,1.60
2023-06-04T10:16:54.817Z,1.77
2023-06-04T10:19:21.987Z,3.13
2023-06-04T10:21:49.648Z,2.95
2023-06-04T10:24:17.450Z,3.47
2023-06-04T10:26:44.980Z,1.80
2023-06-04T10:29:13.915Z,0.88
2023-06-04T10:31:43.225Z,1.67
2023-06-04T10:34:10.375Z,1.05
2023-06-04T10:36:47.174Z,0.90
2023-06-04T10:39:14.503Z,2.72
2023-06-04T10:41:41.722Z,1.23
2023-06-04T10:44:08.965Z,1.38
2023-06-04T10:46:44.314Z,1.42
2023-06-04T10:49:13.607Z,1.85
2023-06-04T10:51:40.890Z,4.25
2023-06-04T10:54:08.576Z,1.83
2023-06-04T10:56:37.009Z,2.50
2023-06-04T10:59:15.955Z,3.47
2023-06-04T11:01:43.149Z,1.48
2023-06-04T11:04:26.662Z,1.80
2023-06-04T11:07:11.018Z,3.65
2023-06-04T11:09:39.781Z,2.17
2023-06-04T11:12:17.807Z,1.58
2023-06-04T11:14:58.207Z,10.63
2023-06-04T11:17:25.226Z,4.28
2023-06-04T11:19:56.827Z,1.20
2023-06-04T11:22:24.892Z,2.58
2023-06-04T11:25:00.463Z,1.47
2023-06-04T11:27:36.176Z,1.23
2023-06-04T11:30:04.786Z,1.00
2023-06-04T11:32:32.440Z,1.85
2023-06-04T11:35:07.502Z,2.33
2023-06-04T11:37:35.314Z,2.38
2023-06-04T11:40:03.122Z,2.20
2023-06-04T11:42:31.288Z,1.17
2023-06-04T11:44:58.743Z,1.33
2023-06-04T11:47:26.507Z,2.10
2023-06-04T11:49:57.909Z,2.97
2023-06-04T11:52:25.538Z,1.77
2023-06-04T11:54:52.800Z,1.93
2023-06-04T11:57:20.347Z,1.77
2023-06-04T11:59:47.632Z,1.73
2023-06-04T12:02:14.765Z,1.47
2023-06-04T12:04:41.821Z,1.87
2023-06-04T12:07:10.341Z,1.57
2023-06-04T12:09:39.705Z,1.63
2023-06-04T12:12:09.050Z,2.33
2023-06-04T12:14:36.181Z,3.13
2023-06-04T12:17:08.064Z,1.70
2023-06-04T12:19:48.225Z,1.47
2023-06-04T12:22:15.174Z,1.60
2023-06-04T12:24:50.788Z,2.50
2023-06-04T12:27:17.900Z,0.83
2023-06-04T12:30:02.075Z,0.87
2023-06-04T12:32:29.485Z,1.77
2023-06-04T12:34:56.976Z,1.80
2023-06-04T12:37:26.932Z,1.57
2023-06-04T12:39:54.895Z,1.30
2023-06-04T12:42:22.687Z,1.57
2023-06-04T12:44:49.849Z,2.63
2023-06-04T12:47:18.328Z,1.10
2023-06-04T12:49:46.361Z,2.37
2023-06-04T12:52:15.531Z,1.40
2023-06-04T12:54:43.676Z,2.73
2023-06-04T12:57:10.943Z,2.50
2023-06-04T12:59:40.394Z,1.30
2023-06-04T13:02:07.746Z,2.60
2023-06-04T13:04:34.826Z,1.50
2023-06-04T13:07:01.972Z,1.73
2023-06-04T13:09:33.919Z,3.50
2023-06-04T13:12:00.951Z,4.93
2023-06-04T13:14:28.064Z,1.53
2023-06-04T13:16:55.032Z,1.30
2023-06-04T13:19:22.127Z,3.40
2023-06-04T13:21:49.134Z,2.60
2023-06-04T13:24:16.937Z,1.93
2023-06-04T13:26:44.040Z,2.17
2023-06-04T13:29:11.421Z,2.67
2023-06-04T13:31:40.531Z,3.23
2023-06-04T13:34:22.889Z,1.73
2023-06-04T13:36:53.822Z,1.67
2023-06-04T13:39:21.048Z,3.20
2023-06-04T13:41:48.117Z,2.77
2023-06-04T13:44:15.224Z,1.83
2023-06-04T13:46:45.008Z,2.50
2023-06-04T13:49:11.730Z,3.07
2023-06-04T13:51:38.503Z,1.67
2023-06-04T13:54:06.015Z,3.23
2023-06-04T13:56:33.101Z,7.03
2023-06-04T13:59:00.039Z,2.67
2023-06-04T14:01:27.017Z,2.10
2023-06-04T14:03:54.540Z,2.87
2023-06-04T14:06:21.678Z,3.70
2023-06-04T14:08:48.498Z,1.23
2023-06-04T14:11:15.569Z,1.67
2023-06-04T14:13:46.427Z,2.00
2023-06-04T14:16:13.372Z,4.10
2023-06-04T14:18:43.215Z,2.10
2023-06-04T14:21:10.339Z,1.57
2023-06-04T14:23:37.486Z,7.00
2023-06-04T14:26:04.430Z,2.43
2023-06-04T14:28:31.384Z,2.20
2023-06-04T14:30:59.703Z,1.80
2023-06-04T14:33:26.834Z,2.27
2023-06-04T14:35:53.855Z,4.20
2023-06-04T14:38:20.959Z,2.27
2023-06-04T14:40:47.990Z,1.80
2023-06-04T14:43:15.036Z,5.97
2023-06-04T14:45:42.178Z,3.30
2023-06-04T14:50:39.208Z,1.13
2023-06-04T14:53:08.788Z,1.53
2023-06-04T14:55:36.156Z,1.90
2023-06-04T14:58:04.417Z,1.03
2023-06-04T15:00:31.808Z,2.10
2023-06-04T15:02:59.570Z,1.83
2023-06-04T15:05:27.079Z,6.23
2023-06-04T15:07:54.186Z,2.80
2023-06-04T15:10:21.397Z,3.77
2023-06-04T15:12:48.406Z,3.40
2023-06-04T15:15:15.539Z,3.80
2023-06-04T15:17:43.733Z,4.47
2023-06-04T15:20:12.400Z,2.03
2023-06-04T15:22:39.457Z,1.70
2023-06-04T15:25:07.308Z,2.53
2023-06-04T15:27:34.593Z,2.77
2023-06-04T15:30:01.771Z,1.83
2023-06-04T15:32:29.103Z,3.43
2023-06-04T15:34:56.363Z,1.23
2023-06-04T15:37:23.370Z,4.63
2023-06-04T15:39:50.396Z,2.20
2023-06-04T15:42:17.610Z,3.10
2023-06-04T15:44:44.850Z,2.80
2023-06-04T15:47:12.074Z,2.27
2023-06-04T15:49:39.171Z,2.43
2023-06-04T15:52:06.562Z,2.73
2023-06-04T15:54:45.151Z,1.70
2023-06-04T15:57:13.487Z,1.33
2023-06-04T15:59:40.721Z,2.43
2023-06-04T16:02:07.769Z,1.90
2023-06-04T16:04:35.013Z,1.67
2023-06-04T16:07:02.841Z,1.97
2023-06-04T16:09:30.424Z,1.60
2023-06-04T16:11:57.789Z,1.83
2023-06-04T16:14:24.928Z,3.63
2023-06-04T16:16:52.366Z,2.10
2023-06-04T16:19:19.584Z,1.50
2023-06-04T16:21:46.807Z,4.43
2023-06-04T16:24:14.044Z,4.30
2023-06-04T16:26:41.594Z,1.80
2023-06-04T16:29:08.916Z,2.47
2023-06-04T16:31:36.524Z,4.20
2023-06-04T16:34:03.860Z,3.13
2023-06-04T16:36:32.565Z,2.97
2023-06-04T16:39:01.405Z,2.47
2023-06-04T16:41:28.830Z,3.13
2023-06-04T16:43:56.217Z,15.57
2023-06-04T16:46:25.438Z,1.47
2023-06-04T16:48:52.862Z,21.80
2023-06-04T16:51:20.082Z,6.33
2023-06-04T16:53:47.121Z,3.33
2023-06-04T16:56:14.530Z,2.00
2023-06-04T16:58:41.989Z,7.13
2023-06-04T17:01:11.679Z,2.63
2023-06-04T17:03:39.438Z,3.50
2023-06-04T17:06:06.990Z,2.00
2023-06-04T17:08:34.188Z,4.60
2023-06-04T17:11:01.424Z,1.73
2023-06-04T17:13:28.793Z,1.73
2023-06-04T17:15:56.327Z,4.40
2023-06-04T17:18:23.587Z,1.97
2023-06-04T17:20:50.783Z,2.70
2023-06-04T17:23:22.894Z,4.37
2023-06-04T17:25:50.842Z,2.23
2023-06-04T17:28:18.178Z,2.77
2023-06-04T17:30:45.838Z,2.53
2023-06-04T17:33:12.866Z,2.43
2023-06-04T17:35:39.952Z,2.80
2023-06-04T17:38:07.129Z,1.83
2023-06-04T17:40:34.367Z,4.87
2023-06-04T17:43:01.565Z,2.77
2023-06-04T17:45:28.675Z,2.90
2023-06-04T17:47:55.958Z,3.80
2023-06-04T17:50:23.055Z,2.03
2023-06-04T17:52:51.888Z,4.77
2023-06-04T17:55:19.350Z,1.80
2023-06-04T17:57:46.410Z,3.10
2023-06-04T18:00:15.893Z,2.80
2023-06-04T18:02:42.991Z,2.30
2023-06-04T18:05:10.673Z,3.03
2023-06-04T18:07:40.235Z,2.57
2023-06-04T18:10:08.008Z,2.00
2023-06-04T18:12:36.937Z,2.50
2023-06-04T18:15:06.172Z,2.20
2023-06-04T18:17:33.684Z,1.97
2023-06-04T18:20:00.710Z,1.57
2023-06-04T18:22:27.905Z,1.87
2023-06-04T18:24:54.926Z,1.60
2023-06-04T18:27:22.639Z,1.70
2023-06-04T18:29:50.486Z,1.70
2023-06-04T18:32:18.349Z,2.77
2023-06-04T18:34:46.174Z,2.20
2023-06-04T18:37:13.261Z,2.30
2023-06-04T18:39:41.327Z,2.93
2023-06-04T18:42:18.155Z,6.10
2023-06-04T18:44:49.116Z,7.90
2023-06-04T18:47:16.279Z,3.80
2023-06-04T18:49:43.310Z,2.63
2023-06-04T18:52:10.197Z,3.83
2023-06-04T18:54:37.059Z,3.37
2023-06-04T18:57:04.726Z,3.67
2023-06-04T18:59:31.697Z,2.10
2023-06-04T19:01:58.750Z,3.30
2023-06-04T19:04:25.562Z,3.10
2023-06-04T19:06:52.680Z,3.10
2023-06-04T19:09:19.782Z,4.70
2023-06-04T19:11:46.697Z,3.20
2023-06-04T19:14:13.858Z,2.93
2023-06-04T19:16:41.085Z,2.90
2023-06-04T19:19:10.073Z,2.97
2023-06-04T19:21:38.690Z,3.30
2023-06-04T19:24:07.033Z,3.07
2023-06-04T19:26:35.807Z,4.47
2023-06-04T19:29:02.677Z,3.13
2023-06-04T19:31:29.566Z,3.03
2023-06-04T19:33:56.818Z,4.57
2023-06-04T19:36:23.777Z,3.37
2023-06-04T19:38:50.912Z,3.43
2023-06-04T19:41:20.679Z,3.70
2023-06-04T19:43:47.709Z,5.07
2023-06-04T19:46:14.775Z,4.53
2023-06-04T19:48:41.818Z,5.00
2023-06-04T19:51:08.930Z,4.90
2023-06-04T19:53:37.316Z,3.90
2023-06-04T19:56:04.324Z,4.40
2023-06-04T19:58:31.728Z,4.27
2023-06-04T20:01:00.974Z,4.10
2023-06-04T20:03:31.737Z,4.03
2023-06-04T20:05:58.979Z,4.33
2023-06-04T20:08:25.912Z,5.97
2023-06-04T20:10:53.390Z,5.57
2023-06-04T20:13:20.652Z,5.20
2023-06-04T20:15:47.867Z,4.13
2023-06-04T20:18:15.039Z,3.77
2023-06-04T20:20:42.554Z,4.43
2023-06-04T20:23:09.564Z,4.47
2023-06-04T20:25:36.546Z,4.80
2023-06-04T20:28:03.429Z,4.17
2023-06-04T20:30:31.995Z,4.97
2023-06-04T20:32:59.029Z,6.83
2023-06-04T20:35:26.129Z,5.13
2023-06-04T20:37:55.245Z,4.93
2023-06-04T20:40:22.854Z,7.53
2023-06-04T20:42:50.173Z,5.40
2023-06-04T20:45:17.046Z,4.77
2023-06-04T20:47:44.261Z,6.47
2023-06-04T20:50:11.788Z,5.43
2023-06-04T20:52:40.342Z,4.73
2023-06-04T20:55:08.307Z,4.63
2023-06-04T20:57:35.259Z,8.23
2023-06-04T21:00:04.273Z,5.87
2023-06-04T21:02:31.389Z,6.50
2023-06-04T21:04:58.720Z,7.23
2023-06-04T21:07:25.657Z,5.80
2023-06-04T21:09:52.645Z,4.77
2023-06-04T21:12:19.687Z,5.27
2023-06-04T21:14:46.923Z,6.03
2023-06-04T21:17:13.909Z,9.87
2023-06-04T21:19:41.102Z,7.30
2023-06-04T21:22:08.041Z,6.10
2023-06-04T21:24:35.256Z,7.20
2023-06-04T21:27:02.064Z,5.80
2023-06-04T21:29:28.817Z,7.40
2023-06-04T21:31:55.887Z,6.83
2023-06-04T21:34:22.977Z,7.40
2023-06-04T21:36:50.113Z,7.70
2023-06-04T21:39:17.136Z,7.77
2023-06-04T21:41:44.248Z,7.20
2023-06-04T21:44:11.140Z,7.00
2023-06-04T21:46:38.497Z,8.67
2023-06-04T21:49:05.591Z,9.67
2023-06-04T21:51:32.504Z,10.73
2023-06-04T21:53:59.603Z,8.63
2023-06-04T21:56:28.136Z,7.40
2023-06-04T21:58:55.071Z,9.47
2023-06-04T22:01:22.128Z,8.63
2023-06-04T22:03:49.000Z,10.43
2023-06-04T22:06:16.068Z,7.40
2023-06-04T22:08:43.421Z,8.50
2023-06-04T22:11:10.469Z,11.83
2023-06-04T22:13:38.645Z,9.27
2023-06-04T22:16:07.031Z,8.97
2023-06-04T22:18:48.125Z,7.50
2023-06-04T22:21:20.808Z,13.10
2023-06-04T22:23:47.893Z,9.47
2023-06-04T22:26:24.974Z,9.77
2023-06-04T22:29:01.688Z,9.47
2023-06-04T22:31:28.862Z,12.37
2023-06-04T22:33:56.220Z,9.70
2023-06-04T22:36:23.186Z,7.73
2023-06-04T22:38:50.162Z,8.43
2023-06-04T22:41:17.029Z,11.03
2023-06-04T22:43:44.124Z,8.97
2023-06-04T22:46:11.419Z,9.10
2023-06-04T22:48:38.253Z,11.47
2023-06-04T22:51:06.735Z,8.93
2023-06-04T22:53:34.242Z,10.87
2023-06-04T22:56:02.823Z,11.27
2023-06-04T22:58:29.888Z,10.23
2023-06-04T23:00:58.413Z,9.57
2023-06-04T23:03:26.700Z,9.20
2023-06-04T23:05:53.927Z,8.70
2023-06-04T23:08:21.074Z,11.23
2023-06-04T23:10:48.149Z,12.17
2023-06-04T23:13:15.796Z,16.90
2023-06-04T23:15:43.072Z,13.53
2023-06-04T23:18:10.309Z,10.33
2023-06-04T23:20:37.196Z,12.83
2023-06-04T23:23:04.366Z,12.33
2023-06-04T23:25:31.337Z,12.00
2023-06-04T23:27:58.278Z,11.77
2023-06-04T23:30:25.309Z,10.00
2023-06-04T23:32:52.326Z,10.17
2023-06-04T23:35:19.312Z,12.30
2023-06-04T23:37:46.747Z,10.93
2023-06-04T23:40:13.943Z,13.13
2023-06-04T23:42:41.097Z,10.40
2023-06-04T23:45:08.469Z,11.47
2023-06-04T23:47:35.444Z,13.93
2023-06-04T23:50:02.584Z,12.87
2023-06-04T23:52:29.433Z,12.13
2023-06-04T23:54:56.812Z,12.83
2023-06-04T23:57:23.741Z,16.80
2023-06-04T23:59:50.749Z,13.90
